Time;durP1;ratioP1;P1;durP2;ratioP2;P2;SDS_P1;SDS_P2;PMS_P1;PMS_P2;Temp;Humidity;BMP_temperature;BMP_pressure;BME280_temperature;BME280_humidity;BME280_pressure;Samples;Min_cycle;Max_cycle;Signal;HPM_P1;HPM_P2
2023/07/06 00:00:05;;;;;;;;;;;21.20;58.20;;;;;;10286333;28;93734;-60
2023/07/06 00:05:08;;;;;;;;;;;21.10;58.10;;;;;;10269690;28;94935;-60
2023/07/06 00:10:10;;;;;;;;;;;21.10;58.10;;;;;;10284360;28;96933;-60
2023/07/06 00:15:12;;;;;;;;;;;21.10;58.10;;;;;;10269608;28;94013;-61
2023/07/06 00:20:14;;;;;;;;;;;21.10;58.10;;;;;;10286680;28;93657;-61
2023/07/06 00:25:15;;;;;;;;;;;21.10;58.00;;;;;;10295195;28;93964;-61
2023/07/06 00:30:30;;;;;;;;;;;21.10;58.00;;;;;;10300950;28;95854;-61
2023/07/06 00:35:33;;;;;;;;;;;21.10;57.90;;;;;;10299555;28;95086;-61
2023/07/06 00:40:39;;;;;;;;;;;21.10;57.90;;;;;;10299089;28;93909;-60
2023/07/06 00:45:44;;;;;;;;;;;21.10;57.90;;;;;;10299424;28;93745;-60
2023/07/06 00:50:51;;;;;;;;;;;21.10;57.90;;;;;;10298284;28;93519;-61
2023/07/06 00:55:57;;;;;;;;;;;21.00;57.80;;;;;;10299152;28;94439;-60
2023/07/06 01:01:01;;;;;;;;;;;21.00;57.80;;;;;;10296023;28;96786;-61
2023/07/06 01:06:03;;;;;;;;;;;21.00;57.80;;;;;;10299030;28;93659;-61
2023/07/06 01:11:08;;;;;;;;;;;21.00;57.70;;;;;;10298717;28;94714;-60
2023/07/06 01:16:18;;;;;;;;;;;21.00;57.80;;;;;;10299657;28;94957;-60
2023/07/06 01:21:28;;;;;;;;;;;21.00;57.90;;;;;;10299048;28;93486;-60
2023/07/06 01:26:52;;;;;;;;;;;21.00;57.80;;;;;;10280622;28;94539;-60
2023/07/06 01:31:56;;;;;;;;;;;21.00;57.80;;;;;;10297426;28;93544;-60
2023/07/06 01:37:03;;;;;;;;;;;21.00;57.80;;;;;;10293127;28;93639;-64
2023/07/06 01:42:07;;;;;;;;;;;21.00;57.90;;;;;;10291285;28;94507;-61
2023/07/06 01:47:10;;;;;;;;;;;21.00;57.70;;;;;;10291448;28;94500;-64
2023/07/06 01:52:30;;;;;;;;;;;21.00;57.80;;;;;;10288019;28;96943;-64
2023/07/06 01:57:35;;;;;;;;;;;21.00;57.90;;;;;;10291260;28;94884;-64
2023/07/06 02:02:52;;;;;;;;;;;21.00;57.80;;;;;;10290260;28;94598;-60
2023/07/06 02:07:54;;;;;;;;;;;21.00;57.80;;;;;;10289659;28;93462;-60
2023/07/06 02:12:57;;;;;;;;;;;21.00;57.90;;;;;;10289160;28;94546;-60
2023/07/06 02:17:58;;;;;;;;;;;21.00;57.80;;;;;;10255775;28;93844;-64
2023/07/06 02:23:00;;;;;;;;;;;21.00;57.70;;;;;;10290598;28;94460;-64
2023/07/06 02:28:03;;;;;;;;;;;21.00;57.80;;;;;;10290492;28;93463;-64
2023/07/06 02:33:04;;;;;;;;;;;21.00;57.80;;;;;;10289031;28;93902;-64
2023/07/06 02:38:06;;;;;;;;;;;21.00;57.70;;;;;;10289781;28;94534;-61
2023/07/06 02:43:08;;;;;;;;;;;21.00;57.70;;;;;;10285833;28;98328;-60
2023/07/06 02:48:09;;;;;;;;;;;21.00;57.70;;;;;;10288075;28;94607;-61
2023/07/06 02:53:11;;;;;;;;;;;21.00;57.70;;;;;;10288986;28;94564;-61
2023/07/06 02:58:13;;;;;;;;;;;21.00;57.70;;;;;;10288000;28;93655;-61
2023/07/06 03:03:15;;;;;;;;;;;21.00;57.70;;;;;;10288548;28;94476;-61
2023/07/06 03:08:17;;;;;;;;;;;21.00;57.70;;;;;;10289770;28;94632;-64
2023/07/06 03:13:19;;;;;;;;;;;21.00;57.70;;;;;;10270471;28;93537;-61
2023/07/06 03:18:21;;;;;;;;;;;21.00;57.70;;;;;;10289314;28;93885;-61
2023/07/06 03:23:23;;;;;;;;;;;21.00;57.70;;;;;;10288080;28;93523;-60
2023/07/06 03:28:25;;;;;;;;;;;21.00;57.60;;;;;;10288972;28;94807;-61
2023/07/06 03:33:26;;;;;;;;;;;21.00;57.70;;;;;;10269100;28;96119;-61
2023/07/06 03:38:29;;;;;;;;;;;21.00;57.70;;;;;;10289207;28;93254;-61
2023/07/06 03:43:33;;;;;;;;;;;21.00;57.70;;;;;;10288218;28;93339;-60
2023/07/06 04:21:26;;;;;;;;;;;20.90;58.10;;;;;;10273844;28;92714;-64
2023/07/06 04:26:27;;;;;;;;;;;20.90;58.20;;;;;;10287134;28;94574;-65
2023/07/06 04:31:29;;;;;;;;;;;20.80;58.10;;;;;;10283017;28;95954;-64
2023/07/06 04:36:31;;;;;;;;;;;20.80;58.20;;;;;;10286145;28;93739;-64
2023/07/06 04:41:35;;;;;;;;;;;20.80;58.20;;;;;;10267416;28;94049;-65
2023/07/06 04:51:52;;;;;;;;;;;20.80;58.30;;;;;;10279564;28;93535;-61
2023/07/06 04:56:55;;;;;;;;;;;20.80;58.30;;;;;;10284262;28;94494;-61
2023/07/06 05:01:57;;;;;;;;;;;20.80;58.40;;;;;;10268973;28;93959;-64
2023/07/06 05:06:59;;;;;;;;;;;20.80;58.40;;;;;;10270257;28;93060;-64
2023/07/06 05:12:00;;;;;;;;;;;20.80;58.50;;;;;;10297966;28;94850;-64
2023/07/06 05:17:02;;;;;;;;;;;20.80;58.60;;;;;;10292200;28;94525;-64
2023/07/06 05:22:04;;;;;;;;;;;20.80;58.60;;;;;;10289177;28;96280;-64
2023/07/06 05:27:06;;;;;;;;;;;20.90;58.70;;;;;;10291749;28;94478;-64
2023/07/06 05:32:08;;;;;;;;;;;20.90;58.80;;;;;;10291278;28;92809;-65
2023/07/06 05:37:09;;;;;;;;;;;20.90;58.90;;;;;;10291939;28;94489;-64
2023/07/06 05:42:14;;;;;;;;;;;20.90;59.00;;;;;;10291401;28;93641;-60
2023/07/06 05:47:15;;;;;;;;;;;20.90;59.70;;;;;;10288837;28;94536;-61
2023/07/06 05:52:17;;;;;;;;;;;20.90;60.30;;;;;;10288837;28;93983;-64
2023/07/06 05:57:19;;;;;;;;;;;21.00;61.30;;;;;;10288698;28;93586;-64
2023/07/06 06:02:22;;;;;;;;;;;21.00;62.40;;;;;;10288407;28;93644;-64
2023/07/06 06:07:25;;;;;;;;;;;21.10;62.50;;;;;;10290106;28;94535;-64
2023/07/06 06:12:27;;;;;;;;;;;21.20;62.30;;;;;;10288725;28;96174;-67
2023/07/06 06:17:29;;;;;;;;;;;21.20;61.70;;;;;;10288335;28;93716;-65
2023/07/06 06:22:31;;;;;;;;;;;21.30;61.10;;;;;;10289228;28;93646;-65
2023/07/06 06:27:32;;;;;;;;;;;21.30;60.80;;;;;;10289364;28;92542;-65
2023/07/06 06:32:34;;;;;;;;;;;21.30;60.60;;;;;;10289874;28;94505;-65
2023/07/06 06:37:37;;;;;;;;;;;21.30;60.60;;;;;;10289499;28;92957;-65
2023/07/06 06:42:39;;;;;;;;;;;21.30;60.50;;;;;;10289585;28;94548;-65
2023/07/06 06:47:41;;;;;;;;;;;21.30;60.50;;;;;;10288874;28;91865;-65
2023/07/06 06:52:43;;;;;;;;;;;21.40;60.40;;;;;;10289567;28;92806;-65
2023/07/06 06:57:45;;;;;;;;;;;21.40;60.30;;;;;;10288616;28;94602;-65
2023/07/06 07:02:47;;;;;;;;;;;21.50;60.10;;;;;;10285856;28;96252;-65
2023/07/06 07:07:50;;;;;;;;;;;21.50;60.00;;;;;;10289068;28;94451;-65
2023/07/06 07:12:53;;;;;;;;;;;21.50;59.90;;;;;;10288021;28;94469;-65
2023/07/06 07:17:57;;;;;;;;;;;21.50;59.70;;;;;;10288083;28;93567;-65
2023/07/06 07:22:59;;;;;;;;;;;21.60;59.60;;;;;;10287501;28;93965;-65
2023/07/06 07:28:01;;;;;;;;;;;21.60;59.50;;;;;;10270039;28;93537;-65
2023/07/06 07:33:03;;;;;;;;;;;21.60;59.60;;;;;;10285849;28;93527;-64
2023/07/06 07:38:06;;;;;;;;;;;21.50;59.60;;;;;;10287707;28;92280;-65
2023/07/06 07:43:08;;;;;;;;;;;21.50;59.50;;;;;;10286960;28;93447;-65
2023/07/06 07:48:10;;;;;;;;;;;21.50;59.50;;;;;;10286754;28;94436;-65
2023/07/06 07:53:12;;;;;;;;;;;21.50;59.50;;;;;;10284790;28;95005;-65
2023/07/06 07:58:13;;;;;;;;;;;21.50;59.50;;;;;;10286707;28;93545;-65
2023/07/06 08:03:16;;;;;;;;;;;21.50;59.50;;;;;;10288029;28;94620;-65
2023/07/06 08:08:18;;;;;;;;;;;21.50;59.40;;;;;;10269497;28;93343;-65
2023/07/06 08:13:20;;;;;;;;;;;21.50;59.40;;;;;;10286787;28;93868;-65
2023/07/06 08:18:25;;;;;;;;;;;21.50;59.40;;;;;;10287170;28;94615;-65
2023/07/06 08:23:28;;;;;;;;;;;21.50;59.40;;;;;;10286975;28;93514;-64
2023/07/06 08:28:31;;;;;;;;;;;21.50;59.40;;;;;;10270413;28;93946;-65
2023/07/06 08:33:35;;;;;;;;;;;21.50;59.50;;;;;;10286764;28;94680;-65
2023/07/06 08:38:37;;;;;;;;;;;21.50;59.50;;;;;;10286096;28;94562;-64
2023/07/06 08:43:39;;;;;;;;;;;21.50;59.50;;;;;;10284418;28;96087;-65
2023/07/06 08:48:41;;;;;;;;;;;21.50;59.40;;;;;;10292994;28;94657;-65
2023/07/06 08:54:10;;;;;;;;;;;21.50;59.40;;;;;;10293871;28;94432;-65
2023/07/06 08:59:14;;;;;;;;;;;21.50;59.40;;;;;;10289325;28;93518;-65
2023/07/06 09:04:19;;;;;;;;;;;21.50;59.40;;;;;;10292450;28;93865;-65
2023/07/06 09:09:21;;;;;;;;;;;21.50;59.50;;;;;;10292494;28;93630;-65
2023/07/06 09:14:27;;;;;;;;;;;21.50;59.40;;;;;;10291735;28;93531;-65
2023/07/06 09:19:31;;;;;;;;;;;21.50;59.50;;;;;;10292482;28;92830;-65
2023/07/06 09:24:34;;;;;;;;;;;21.40;59.30;;;;;;10292731;28;93427;-65
2023/07/06 09:29:37;;;;;;;;;;;21.40;59.30;;;;;;10292469;28;94947;-65
2023/07/06 09:34:44;;;;;;;;;;;21.50;59.30;;;;;;10289510;28;95918;-65
2023/07/06 09:39:56;;;;;;;;;;;21.50;59.30;;;;;;10274841;28;94007;-65
2023/07/06 09:45:29;;;;;;;;;;;21.50;59.20;;;;;;10291976;28;92788;-65
2023/07/06 09:50:38;;;;;;;;;;;21.50;59.30;;;;;;10290685;28;93562;-65
2023/07/06 09:55:40;;;;;;;;;;;21.40;59.20;;;;;;10289880;28;94804;-65
2023/07/06 10:00:46;;;;;;;;;;;21.40;59.30;;;;;;10291414;28;93711;-65
2023/07/06 10:06:07;;;;;;;;;;;21.40;60.30;;;;;;10291378;28;93648;-65
2023/07/06 10:11:20;;;;;;;;;;;21.40;59.30;;;;;;10292458;28;93821;-65
2023/07/06 10:16:22;;;;;;;;;;;21.40;59.20;;;;;;10289750;28;93062;-65
2023/07/06 10:21:36;;;;;;;;;;;21.40;59.00;;;;;;10290457;28;93289;-66
2023/07/06 10:26:44;;;;;;;;;;;21.50;59.00;;;;;;10288930;28;96815;-66
2023/07/06 10:31:51;;;;;;;;;;;21.50;58.90;;;;;;10289681;28;93796;-65
2023/07/06 10:36:53;;;;;;;;;;;21.50;58.90;;;;;;10290192;28;93620;-66
2023/07/06 10:42:00;;;;;;;;;;;21.50;58.70;;;;;;10289082;28;92885;-66
2023/07/06 10:47:02;;;;;;;;;;;21.50;58.80;;;;;;10288009;28;93832;-65
2023/07/06 10:52:07;;;;;;;;;;;21.40;58.80;;;;;;10288890;28;94063;-65
2023/07/06 10:57:10;;;;;;;;;;;21.40;58.90;;;;;;10288270;28;94288;-65
2023/07/06 11:02:19;;;;;;;;;;;21.40;59.00;;;;;;10272003;28;94638;-65
2023/07/06 11:07:42;;;;;;;;;;;21.30;59.10;;;;;;10288397;28;94683;-65
2023/07/06 11:12:55;;;;;;;;;;;21.30;59.10;;;;;;10287866;28;94576;-65
2023/07/06 11:17:58;;;;;;;;;;;21.30;59.20;;;;;;10285690;28;96510;-65
2023/07/06 11:23:02;;;;;;;;;;;21.30;59.10;;;;;;10288659;28;93376;-65
2023/07/06 11:28:06;;;;;;;;;;;21.20;59.10;;;;;;10288504;28;94642;-60
2023/07/06 11:33:26;;;;;;;;;;;21.20;59.30;;;;;;10287026;28;94044;-60
2023/07/06 11:38:46;;;;;;;;;;;21.20;59.10;;;;;;10269474;28;93712;-66
2023/07/06 11:43:49;;;;;;;;;;;21.30;59.20;;;;;;10270650;28;94519;-61
2023/07/06 11:48:57;;;;;;;;;;;21.30;59.20;;;;;;10269344;28;93721;-61
2023/07/06 11:54:01;;;;;;;;;;;21.30;59.10;;;;;;10288130;28;93953;-60
2023/07/06 11:59:04;;;;;;;;;;;21.30;59.00;;;;;;10286333;28;92779;-61
2023/07/06 12:04:10;;;;;;;;;;;21.40;59.00;;;;;;10287943;28;94768;-60
2023/07/06 12:09:16;;;;;;;;;;;21.40;59.00;;;;;;10266791;28;96324;-61
2023/07/06 12:14:20;;;;;;;;;;;21.40;58.80;;;;;;10269202;28;92934;-61
2023/07/06 12:19:22;;;;;;;;;;;21.40;58.90;;;;;;10285905;28;94727;-61
2023/07/06 12:24:25;;;;;;;;;;;21.40;58.90;;;;;;10285368;28;94220;-60
2023/07/06 12:29:31;;;;;;;;;;;21.40;58.70;;;;;;10285392;28;93635;-60
2023/07/06 12:34:33;;;;;;;;;;;21.40;58.80;;;;;;10286597;28;93933;-60
2023/07/06 12:39:40;;;;;;;;;;;21.40;58.80;;;;;;10286430;28;94520;-60
2023/07/06 12:44:43;;;;;;;;;;;21.40;58.80;;;;;;10287108;28;92158;-61
2023/07/06 12:49:45;;;;;;;;;;;21.40;58.90;;;;;;10251850;28;93474;-60
2023/07/06 12:54:54;;;;;;;;;;;21.40;58.90;;;;;;10286308;28;94672;-61
2023/07/06 13:00:12;;;;;;;;;;;21.40;58.90;;;;;;10282255;28;96596;-60
2023/07/06 13:05:15;;;;;;;;;;;21.40;58.90;;;;;;10286526;28;93479;-65
2023/07/06 13:10:22;;;;;;;;;;;21.40;58.80;;;;;;10285951;28;93589;-65
2023/07/06 13:15:25;;;;;;;;;;;21.50;58.90;;;;;;10286025;28;94474;-60
2023/07/06 13:20:28;;;;;;;;;;;21.40;58.90;;;;;;10285055;28;94321;-60
2023/07/06 13:25:30;;;;;;;;;;;21.40;59.00;;;;;;10285518;28;93683;-65
2023/07/06 13:30:32;;;;;;;;;;;21.40;58.90;;;;;;10287939;28;94687;-64
2023/07/06 13:35:33;;;;;;;;;;;21.40;58.80;;;;;;10292116;28;93758;-65
2023/07/06 13:40:37;;;;;;;;;;;21.40;59.00;;;;;;10291630;28;93547;-65
2023/07/06 13:45:40;;;;;;;;;;;21.40;59.00;;;;;;10290802;28;94043;-65
2023/07/06 13:50:42;;;;;;;;;;;21.40;58.90;;;;;;10288573;28;97190;-65
2023/07/06 13:55:48;;;;;;;;;;;21.40;58.90;;;;;;10291033;28;94653;-65
2023/07/06 14:00:50;;;;;;;;;;;21.40;59.00;;;;;;10273801;28;93446;-65
2023/07/06 14:05:51;;;;;;;;;;;21.40;58.90;;;;;;10291198;28;94527;-65
2023/07/06 14:10:54;;;;;;;;;;;21.40;58.90;;;;;;10289930;28;94470;-65
2023/07/06 14:15:56;;;;;;;;;;;21.40;58.90;;;;;;10290597;28;93664;-65
2023/07/06 14:21:01;;;;;;;;;;;21.40;58.90;;;;;;10255970;28;94631;-65
2023/07/06 14:26:03;;;;;;;;;;;21.40;59.00;;;;;;10291010;28;93614;-65
2023/07/06 14:31:06;;;;;;;;;;;21.40;59.00;;;;;;10290080;28;93575;-65
2023/07/06 14:36:08;;;;;;;;;;;21.40;58.90;;;;;;10289478;28;94452;-65
2023/07/06 14:41:10;;;;;;;;;;;21.40;58.90;;;;;;10286915;28;96849;-65
2023/07/06 14:46:11;;;;;;;;;;;21.40;58.90;;;;;;10289470;28;94875;-65
2023/07/06 14:51:14;;;;;;;;;;;21.40;58.80;;;;;;10271120;28;94446;-65
2023/07/06 14:56:18;;;;;;;;;;;21.30;58.80;;;;;;10289769;28;94223;-61
2023/07/06 15:01:20;;;;;;;;;;;21.40;58.90;;;;;;10289134;28;94687;-61
2023/07/06 15:06:21;;;;;;;;;;;21.40;58.90;;;;;;10272915;28;94556;-65
2023/07/06 15:11:23;;;;;;;;;;;21.40;58.80;;;;;;10290132;28;94552;-65
2023/07/06 15:16:25;;;;;;;;;;;21.40;58.80;;;;;;10289582;28;93053;-65
2023/07/06 15:21:27;;;;;;;;;;;21.40;58.80;;;;;;10289224;28;93942;-61
2023/07/06 15:26:28;;;;;;;;;;;21.40;58.90;;;;;;10287992;28;94528;-65
2023/07/06 15:31:30;;;;;;;;;;;21.40;59.20;;;;;;10286519;28;97222;-65
2023/07/06 15:36:32;;;;;;;;;;;21.40;59.30;;;;;;10289313;28;93475;-65
2023/07/06 15:41:34;;;;;;;;;;;21.40;59.40;;;;;;10286782;28;93692;-61
2023/07/06 15:46:36;;;;;;;;;;;21.40;59.20;;;;;;10283054;28;93267;-61
2023/07/06 15:51:38;;;;;;;;;;;21.60;59.20;;;;;;10280613;28;94511;-60
2023/07/06 15:56:40;;;;;;;;;;;21.80;60.70;;;;;;10265334;28;95075;-61
2023/07/06 16:01:41;;;;;;;;;;;22.10;61.60;;;;;;10284721;28;93688;-61
2023/07/06 16:06:43;;;;;;;;;;;22.30;60.90;;;;;;10287172;28;92758;-60
2023/07/06 16:11:46;;;;;;;;;;;22.60;59.90;;;;;;10287426;28;93626;-64
2023/07/06 16:16:48;;;;;;;;;;;22.80;59.50;;;;;;10252454;28;94793;-64
2023/07/06 16:21:49;;;;;;;;;;;22.80;59.20;;;;;;10283921;28;94836;-64
2023/07/06 16:26:51;;;;;;;;;;;22.80;59.00;;;;;;10286298;28;94865;-65
2023/07/06 16:31:53;;;;;;;;;;;22.80;60.00;;;;;;10269481;28;93743;-64
2023/07/06 16:36:54;;;;;;;;;;;22.80;59.00;;;;;;10286712;28;93469;-65
2023/07/06 16:41:56;;;;;;;;;;;22.70;59.10;;;;;;10286383;28;94835;-64
2023/07/06 16:46:58;;;;;;;;;;;22.60;59.30;;;;;;10285868;28;94854;-64
2023/07/06 16:52:00;;;;;;;;;;;22.50;59.50;;;;;;10286357;28;93036;-61
2023/07/06 16:57:01;;;;;;;;;;;22.50;59.60;;;;;;10286908;28;93109;-61
2023/07/06 17:02:04;;;;;;;;;;;22.40;59.60;;;;;;10284741;28;93583;-61
2023/07/06 17:07:06;;;;;;;;;;;22.40;59.80;;;;;;10290038;28;93684;-61
2023/07/06 17:12:08;;;;;;;;;;;22.40;59.90;;;;;;10290099;28;96954;-60
2023/07/06 17:17:09;;;;;;;;;;;22.40;60.00;;;;;;10292051;28;93572;-61
2023/07/06 17:22:11;;;;;;;;;;;22.40;60.20;;;;;;10292924;28;94440;-61
2023/07/06 17:27:15;;;;;;;;;;;22.40;60.30;;;;;;10292172;28;93498;-60
2023/07/06 17:32:16;;;;;;;;;;;22.30;60.30;;;;;;10292920;28;93962;-60
2023/07/06 17:37:18;;;;;;;;;;;22.30;60.40;;;;;;10290942;28;93682;-61
2023/07/06 17:42:20;;;;;;;;;;;22.30;60.40;;;;;;10290634;28;93601;-61
2023/07/06 17:47:21;;;;;;;;;;;22.30;60.30;;;;;;10292214;28;93776;-61
2023/07/06 17:52:23;;;;;;;;;;;22.30;60.30;;;;;;10290623;28;93467;-61
2023/07/06 17:57:25;;;;;;;;;;;22.30;60.10;;;;;;10291374;28;94769;-60
2023/07/06 18:02:28;;;;;;;;;;;22.30;60.20;;;;;;10260283;28;96700;-62
2023/07/06 18:07:30;;;;;;;;;;;22.40;59.20;;;;;;10296962;28;93356;-62
2023/07/06 18:12:31;;;;;;;;;;;22.40;57.30;;;;;;10294336;28;94716;-62
2023/07/06 18:17:33;;;;;;;;;;;22.40;56.20;;;;;;10285262;28;92818;-64
2023/07/06 18:22:35;;;;;;;;;;;22.40;55.40;;;;;;10287132;28;94723;-63
2023/07/06 18:27:37;;;;;;;;;;;22.40;55.60;;;;;;10307404;28;94561;-65
2023/07/06 18:32:39;;;;;;;;;;;22.40;55.90;;;;;;10290046;28;93708;-65
2023/07/06 18:37:40;;;;;;;;;;;22.40;56.20;;;;;;10290012;28;92829;-64
2023/07/06 18:42:43;;;;;;;;;;;22.40;56.20;;;;;;10272983;28;93833;-64
2023/07/06 18:47:44;;;;;;;;;;;22.40;56.30;;;;;;10288704;28;94097;-65
2023/07/06 18:52:46;;;;;;;;;;;22.30;56.50;;;;;;10286466;28;96109;-62
2023/07/06 18:57:48;;;;;;;;;;;22.30;56.80;;;;;;10271209;28;93498;-61
2023/07/06 19:02:50;;;;;;;;;;;22.30;56.90;;;;;;10294519;28;93536;-61
2023/07/06 19:07:52;;;;;;;;;;;22.20;57.10;;;;;;10288044;28;93409;-62
2023/07/06 19:13:03;;;;;;;;;;;22.20;57.20;;;;;;10288897;28;93137;-61
2023/07/06 19:18:05;;;;;;;;;;;22.20;57.30;;;;;;10289213;28;93575;-61
2023/07/06 19:23:06;;;;;;;;;;;22.20;57.50;;;;;;10288202;28;93713;-61
2023/07/06 19:28:08;;;;;;;;;;;22.20;57.60;;;;;;10289825;28;91900;-62
2023/07/06 19:33:10;;;;;;;;;;;22.10;57.70;;;;;;10288720;28;94574;-61
2023/07/06 19:38:12;;;;;;;;;;;22.10;57.70;;;;;;10254148;28;93224;-62
2023/07/06 19:43:13;;;;;;;;;;;22.10;57.80;;;;;;10283444;28;95706;-62
2023/07/06 19:48:17;;;;;;;;;;;22.10;57.90;;;;;;10280658;28;93480;-62
2023/07/06 19:53:18;;;;;;;;;;;22.10;57.90;;;;;;10289842;28;94514;-62
2023/07/06 19:58:20;;;;;;;;;;;22.10;58.00;;;;;;10293850;28;93740;-62
2023/07/06 20:03:22;;;;;;;;;;;22.10;58.00;;;;;;10268707;28;93421;-62
2023/07/06 20:08:25;;;;;;;;;;;22.10;58.20;;;;;;10287776;28;94295;-62
2023/07/06 20:13:27;;;;;;;;;;;22.10;58.20;;;;;;10286640;28;93883;-61
2023/07/06 20:18:29;;;;;;;;;;;22.10;58.20;;;;;;10299857;28;92857;-64
2023/07/06 20:23:31;;;;;;;;;;;22.00;58.20;;;;;;10284890;28;92670;-64
2023/07/06 20:28:32;;;;;;;;;;;22.00;58.20;;;;;;10285981;28;93527;-61
2023/07/06 20:33:34;;;;;;;;;;;22.00;58.30;;;;;;10283387;28;95353;-61
2023/07/06 20:38:36;;;;;;;;;;;22.00;58.20;;;;;;10286052;28;94458;-61
2023/07/06 20:43:38;;;;;;;;;;;22.00;58.20;;;;;;10291466;28;94522;-62
2023/07/06 20:48:39;;;;;;;;;;;22.00;58.20;;;;;;10292595;28;93605;-62
2023/07/06 20:53:41;;;;;;;;;;;22.00;58.20;;;;;;10300739;28;94322;-62
2023/07/06 20:58:43;;;;;;;;;;;22.00;58.20;;;;;;10292750;28;94431;-62
2023/07/06 21:03:44;;;;;;;;;;;22.00;58.20;;;;;;10293669;28;94676;-64
2023/07/06 21:08:46;;;;;;;;;;;22.00;58.20;;;;;;10293892;28;93664;-62
2023/07/06 21:13:48;;;;;;;;;;;22.00;58.30;;;;;;10273600;28;94127;-62
2023/07/06 21:18:49;;;;;;;;;;;21.90;58.20;;;;;;10293140;28;94585;-63
2023/07/06 21:23:51;;;;;;;;;;;22.00;58.30;;;;;;10290532;28;95953;-63
2023/07/06 21:28:53;;;;;;;;;;;21.90;58.20;;;;;;10292934;28;94533;-63
2023/07/06 21:33:54;;;;;;;;;;;21.90;58.20;;;;;;10274926;28;94798;-63
2023/07/06 21:38:56;;;;;;;;;;;21.90;58.20;;;;;;10292413;28;93692;-63
2023/07/06 21:43:58;;;;;;;;;;;21.90;58.20;;;;;;10275386;28;95024;-63
2023/07/06 21:49:00;;;;;;;;;;;21.90;58.20;;;;;;10291477;28;94722;-63
2023/07/06 21:54:01;;;;;;;;;;;21.90;58.10;;;;;;10290368;28;93504;-63
2023/07/06 21:59:03;;;;;;;;;;;21.80;58.10;;;;;;10292405;28;93802;-63
2023/07/06 22:04:05;;;;;;;;;;;21.80;58.10;;;;;;10291979;28;94600;-63
2023/07/06 22:09:07;;;;;;;;;;;21.80;58.00;;;;;;10290922;28;94829;-63
2023/07/06 22:14:08;;;;;;;;;;;21.80;58.00;;;;;;10270787;28;96899;-63
2023/07/06 22:19:10;;;;;;;;;;;21.80;58.00;;;;;;10273381;28;92931;-63
2023/07/06 22:24:12;;;;;;;;;;;21.80;58.00;;;;;;10290073;28;94464;-63
2023/07/06 22:29:14;;;;;;;;;;;21.80;57.90;;;;;;10290376;28;93721;-63
2023/07/06 22:34:15;;;;;;;;;;;21.70;57.80;;;;;;10290558;28;94520;-63
2023/07/06 22:39:17;;;;;;;;;;;21.80;57.80;;;;;;10289941;28;94682;-63
2023/07/06 22:44:18;;;;;;;;;;;21.70;57.70;;;;;;10288694;28;93524;-62
2023/07/06 22:49:24;;;;;;;;;;;21.70;57.70;;;;;;10289330;28;93756;-62
2023/07/06 22:54:26;;;;;;;;;;;21.70;57.70;;;;;;10289879;28;93422;-62
2023/07/06 22:59:29;;;;;;;;;;;21.70;57.70;;;;;;10288927;28;94673;-62
2023/07/06 23:04:30;;;;;;;;;;;21.70;57.60;;;;;;10285283;28;96122;-62
2023/07/06 23:09:32;;;;;;;;;;;21.70;57.60;;;;;;10288948;28;93645;-62
2023/07/06 23:14:36;;;;;;;;;;;21.70;57.60;;;;;;10287126;28;114019;-62
2023/07/06 23:19:37;;;;;;;;;;;21.70;57.60;;;;;;10289467;28;94695;-62
2023/07/06 23:24:39;;;;;;;;;;;21.70;57.60;;;;;;10288285;28;94638;-62
2023/07/06 23:29:41;;;;;;;;;;;21.70;57.60;;;;;;10284627;28;93460;-62
2023/07/06 23:34:43;;;;;;;;;;;21.70;57.50;;;;;;10288856;28;94354;-62
2023/07/06 23:39:45;;;;;;;;;;;21.60;57.50;;;;;;10290075;28;92567;-62
2023/07/06 23:44:47;;;;;;;;;;;21.70;57.50;;;;;;10287946;28;94599;-62
2023/07/06 23:49:49;;;;;;;;;;;21.60;57.40;;;;;;10287801;28;94755;-62
2023/07/06 23:54:50;;;;;;;;;;;21.60;57.40;;;;;;10285552;28;96988;-62
2023/07/06 23:59:54;;;;;;;;;;;21.60;57.50;;;;;;10287279;28;93969;-62
